sensor_id;sensor_type;location;lat;lon;timestamp;P1;durP1;ratioP1;P2;durP2;ratioP2
16957;SDS011;8595;52.542;11.974;2023-09-19T00:00:25;9.15;;;3.50;;
16957;SDS011;8595;52.542;11.974;2023-09-19T00:02:52;5.40;;;3.03;;
16957;SDS011;8595;52.542;11.974;2023-09-19T00:05:21;4.43;;;2.78;;
16957;SDS011;8595;52.542;11.974;2023-09-19T00:07:49;6.68;;;2.95;;
16957;SDS011;8595;52.542;11.974;2023-09-19T00:10:18;5.03;;;2.60;;
16957;SDS011;8595;52.542;11.974;2023-09-19T00:12:46;6.22;;;2.90;;
16957;SDS011;8595;52.542;11.974;2023-09-19T00:15:13;4.53;;;2.72;;
16957;SDS011;8595;52.542;11.974;2023-09-19T00:17:42;3.80;;;2.70;;
16957;SDS011;8595;52.542;11.974;2023-09-19T00:20:09;3.35;;;2.42;;
16957;SDS011;8595;52.542;11.974;2023-09-19T00:22:40;10.27;;;2.90;;
16957;SDS011;8595;52.542;11.974;2023-09-19T00:25:07;4.25;;;2.50;;
16957;SDS011;8595;52.542;11.974;2023-09-19T00:27:37;4.35;;;2.30;;
16957;SDS011;8595;52.542;11.974;2023-09-19T00:30:07;2.80;;;2.17;;
16957;SDS011;8595;52.542;11.974;2023-09-19T00:32:39;5.45;;;2.00;;
16957;SDS011;8595;52.542;11.974;2023-09-19T00:35:06;1.90;;;1.45;;
16957;SDS011;8595;52.542;11.974;2023-09-19T00:37:34;3.55;;;1.85;;
16957;SDS011;8595;52.542;11.974;2023-09-19T00:40:03;1.65;;;1.27;;
16957;SDS011;8595;52.542;11.974;2023-09-19T00:42:31;2.97;;;1.70;;
16957;SDS011;8595;52.542;11.974;2023-09-19T00:44:58;5.63;;;1.45;;
16957;SDS011;8595;52.542;11.974;2023-09-19T00:47:28;3.70;;;1.27;;
16957;SDS011;8595;52.542;11.974;2023-09-19T00:49:55;6.50;;;1.38;;
16957;SDS011;8595;52.542;11.974;2023-09-19T00:52:23;6.28;;;1.52;;
16957;SDS011;8595;52.542;11.974;2023-09-19T00:54:50;1.10;;;1.00;;
16957;SDS011;8595;52.542;11.974;2023-09-19T00:57:18;3.03;;;1.10;;
16957;SDS011;8595;52.542;11.974;2023-09-19T00:59:47;2.25;;;1.13;;
16957;SDS011;8595;52.542;11.974;2023-09-19T01:02:16;1.60;;;1.25;;
16957;SDS011;8595;52.542;11.974;2023-09-19T01:04:43;2.47;;;1.00;;
16957;SDS011;8595;52.542;11.974;2023-09-19T01:07:11;2.50;;;0.95;;
16957;SDS011;8595;52.542;11.974;2023-09-19T01:09:39;1.20;;;0.80;;
16957;SDS011;8595;52.542;11.974;2023-09-19T01:12:07;0.98;;;0.80;;
16957;SDS011;8595;52.542;11.974;2023-09-19T01:14:40;0.95;;;0.95;;
16957;SDS011;8595;52.542;11.974;2023-09-19T01:17:14;0.70;;;0.70;;
16957;SDS011;8595;52.542;11.974;2023-09-19T01:20:02;1.10;;;1.00;;
16957;SDS011;8595;52.542;11.974;2023-09-19T01:22:42;2.72;;;0.80;;
16957;SDS011;8595;52.542;11.974;2023-09-19T01:25:20;0.70;;;0.70;;
16957;SDS011;8595;52.542;11.974;2023-09-19T01:28:20;1.35;;;0.80;;
16957;SDS011;8595;52.542;11.974;2023-09-19T01:30:57;0.70;;;0.70;;
16957;SDS011;8595;52.542;11.974;2023-09-19T01:33:25;5.13;;;0.80;;
16957;SDS011;8595;52.542;11.974;2023-09-19T01:35:52;1.35;;;0.80;;
16957;SDS011;8595;52.542;11.974;2023-09-19T01:38:22;0.82;;;0.82;;
16957;SDS011;8595;52.542;11.974;2023-09-19T01:40:51;0.73;;;0.60;;
16957;SDS011;8595;52.542;11.974;2023-09-19T01:43:30;2.25;;;0.70;;
16957;SDS011;8595;52.542;11.974;2023-09-19T01:46:03;1.13;;;0.75;;
16957;SDS011;8595;52.542;11.974;2023-09-19T01:48:35;1.17;;;1.00;;
16957;SDS011;8595;52.542;11.974;2023-09-19T01:51:08;2.80;;;1.08;;
16957;SDS011;8595;52.542;11.974;2023-09-19T01:53:38;2.17;;;1.00;;
16957;SDS011;8595;52.542;11.974;2023-09-19T01:56:10;1.02;;;0.88;;
16957;SDS011;8595;52.542;11.974;2023-09-19T01:58:44;1.27;;;1.02;;
16957;SDS011;8595;52.542;11.974;2023-09-19T02:01:16;3.17;;;1.00;;
16957;SDS011;8595;52.542;11.974;2023-09-19T02:03:46;1.42;;;0.85;;
16957;SDS011;8595;52.542;11.974;2023-09-19T02:06:14;1.45;;;1.20;;
16957;SDS011;8595;52.542;11.974;2023-09-19T02:08:42;1.67;;;1.10;;
16957;SDS011;8595;52.542;11.974;2023-09-19T02:11:10;1.20;;;0.90;;
16957;SDS011;8595;52.542;11.974;2023-09-19T02:13:36;3.47;;;1.10;;
16957;SDS011;8595;52.542;11.974;2023-09-19T02:16:03;1.95;;;1.08;;
16957;SDS011;8595;52.542;11.974;2023-09-19T02:18:33;2.17;;;1.45;;
16957;SDS011;8595;52.542;11.974;2023-09-19T02:21:04;2.13;;;1.30;;
16957;SDS011;8595;52.542;11.974;2023-09-19T02:27:15;1.92;;;1.30;;
16957;SDS011;8595;52.542;11.974;2023-09-19T02:29:46;1.63;;;1.50;;
16957;SDS011;8595;52.542;11.974;2023-09-19T02:39:08;1.73;;;1.40;;
16957;SDS011;8595;52.542;11.974;2023-09-19T02:41:36;1.70;;;1.40;;
16957;SDS011;8595;52.542;11.974;2023-09-19T02:44:05;15.88;;;1.80;;
16957;SDS011;8595;52.542;11.974;2023-09-19T02:46:39;2.72;;;1.77;;
16957;SDS011;8595;52.542;11.974;2023-09-19T02:52:36;2.40;;;1.70;;
16957;SDS011;8595;52.542;11.974;2023-09-19T02:55:07;5.28;;;1.83;;
16957;SDS011;8595;52.542;11.974;2023-09-19T02:57:37;2.15;;;1.85;;
16957;SDS011;8595;52.542;11.974;2023-09-19T03:00:13;3.65;;;2.00;;
16957;SDS011;8595;52.542;11.974;2023-09-19T03:02:42;3.33;;;1.90;;
16957;SDS011;8595;52.542;11.974;2023-09-19T03:21:58;3.88;;;2.85;;
16957;SDS011;8595;52.542;11.974;2023-09-19T03:24:28;5.07;;;2.38;;
16957;SDS011;8595;52.542;11.974;2023-09-19T03:26:54;5.03;;;2.88;;
16957;SDS011;8595;52.542;11.974;2023-09-19T03:52:07;4.28;;;2.90;;
16957;SDS011;8595;52.542;11.974;2023-09-19T03:54:37;5.00;;;3.25;;
16957;SDS011;8595;52.542;11.974;2023-09-19T03:57:09;5.35;;;2.85;;
16957;SDS011;8595;52.542;11.974;2023-09-19T03:59:43;3.50;;;3.20;;
16957;SDS011;8595;52.542;11.974;2023-09-19T04:02:38;4.20;;;2.80;;
16957;SDS011;8595;52.542;11.974;2023-09-19T04:19:14;4.18;;;2.50;;
16957;SDS011;8595;52.542;11.974;2023-09-19T04:21:50;4.85;;;3.50;;
16957;SDS011;8595;52.542;11.974;2023-09-19T04:24:21;3.88;;;2.75;;
16957;SDS011;8595;52.542;11.974;2023-09-19T04:26:47;6.80;;;3.08;;
16957;SDS011;8595;52.542;11.974;2023-09-19T04:29:17;3.15;;;2.85;;
16957;SDS011;8595;52.542;11.974;2023-09-19T04:31:53;6.70;;;2.95;;
16957;SDS011;8595;52.542;11.974;2023-09-19T04:34:28;7.82;;;3.45;;
16957;SDS011;8595;52.542;11.974;2023-09-19T04:37:01;4.13;;;3.30;;
16957;SDS011;8595;52.542;11.974;2023-09-19T04:39:32;3.28;;;2.97;;
16957;SDS011;8595;52.542;11.974;2023-09-19T04:42:01;4.85;;;3.00;;
16957;SDS011;8595;52.542;11.974;2023-09-19T04:44:50;3.67;;;2.80;;
16957;SDS011;8595;52.542;11.974;2023-09-19T04:47:26;6.25;;;3.50;;
16957;SDS011;8595;52.542;11.974;2023-09-19T04:50:15;8.10;;;3.65;;
16957;SDS011;8595;52.542;11.974;2023-09-19T04:53:07;5.93;;;3.35;;
16957;SDS011;8595;52.542;11.974;2023-09-19T04:55:45;7.55;;;2.90;;
16957;SDS011;8595;52.542;11.974;2023-09-19T05:02:02;7.50;;;3.28;;
16957;SDS011;8595;52.542;11.974;2023-09-19T05:04:47;5.35;;;3.17;;
16957;SDS011;8595;52.542;11.974;2023-09-19T05:23:33;6.70;;;3.90;;
16957;SDS011;8595;52.542;11.974;2023-09-19T05:26:00;4.82;;;3.58;;
16957;SDS011;8595;52.542;11.974;2023-09-19T05:28:26;6.20;;;3.30;;
16957;SDS011;8595;52.542;11.974;2023-09-19T05:30:54;7.68;;;3.47;;
16957;SDS011;8595;52.542;11.974;2023-09-19T05:33:24;7.50;;;3.47;;
16957;SDS011;8595;52.542;11.974;2023-09-19T05:35:52;8.18;;;3.60;;
16957;SDS011;8595;52.542;11.974;2023-09-19T05:38:19;5.32;;;3.38;;
16957;SDS011;8595;52.542;11.974;2023-09-19T05:40:47;8.93;;;3.40;;
16957;SDS011;8595;52.542;11.974;2023-09-19T05:43:14;3.47;;;3.03;;
16957;SDS011;8595;52.542;11.974;2023-09-19T05:45:41;5.88;;;3.58;;
16957;SDS011;8595;52.542;11.974;2023-09-19T05:48:08;5.80;;;3.80;;
16957;SDS011;8595;52.542;11.974;2023-09-19T05:50:36;8.00;;;3.63;;
16957;SDS011;8595;52.542;11.974;2023-09-19T05:53:03;12.30;;;3.72;;
16957;SDS011;8595;52.542;11.974;2023-09-19T05:55:32;7.05;;;3.85;;
16957;SDS011;8595;52.542;11.974;2023-09-19T05:58:01;11.68;;;4.40;;
16957;SDS011;8595;52.542;11.974;2023-09-19T06:00:32;6.03;;;2.88;;
16957;SDS011;8595;52.542;11.974;2023-09-19T06:02:59;8.55;;;3.60;;
16957;SDS011;8595;52.542;11.974;2023-09-19T06:05:33;7.80;;;3.55;;
16957;SDS011;8595;52.542;11.974;2023-09-19T06:08:25;4.28;;;3.20;;
16957;SDS011;8595;52.542;11.974;2023-09-19T06:11:37;6.65;;;3.63;;
16957;SDS011;8595;52.542;11.974;2023-09-19T06:21:19;5.30;;;3.90;;
16957;SDS011;8595;52.542;11.974;2023-09-19T06:27:31;9.95;;;4.05;;
16957;SDS011;8595;52.542;11.974;2023-09-19T06:30:01;8.60;;;4.63;;
16957;SDS011;8595;52.542;11.974;2023-09-19T06:32:28;6.25;;;3.70;;
16957;SDS011;8595;52.542;11.974;2023-09-19T06:34:55;7.97;;;3.60;;
16957;SDS011;8595;52.542;11.974;2023-09-19T06:37:25;6.80;;;4.28;;
16957;SDS011;8595;52.542;11.974;2023-09-19T06:39:53;5.28;;;3.83;;
16957;SDS011;8595;52.542;11.974;2023-09-19T06:42:20;7.32;;;3.88;;
16957;SDS011;8595;52.542;11.974;2023-09-19T06:44:47;9.15;;;4.78;;
16957;SDS011;8595;52.542;11.974;2023-09-19T06:47:15;8.18;;;5.25;;
16957;SDS011;8595;52.542;11.974;2023-09-19T06:49:42;13.90;;;4.75;;
16957;SDS011;8595;52.542;11.974;2023-09-19T06:52:10;10.10;;;4.00;;
16957;SDS011;8595;52.542;11.974;2023-09-19T06:54:38;8.30;;;5.18;;
16957;SDS011;8595;52.542;11.974;2023-09-19T06:57:05;5.57;;;4.32;;
16957;SDS011;8595;52.542;11.974;2023-09-19T06:59:34;8.68;;;4.20;;
16957;SDS011;8595;52.542;11.974;2023-09-19T07:02:02;5.90;;;4.15;;
16957;SDS011;8595;52.542;11.974;2023-09-19T07:04:31;8.15;;;4.25;;
16957;SDS011;8595;52.542;11.974;2023-09-19T07:06:58;8.38;;;3.95;;
16957;SDS011;8595;52.542;11.974;2023-09-19T07:09:24;4.75;;;3.90;;
16957;SDS011;8595;52.542;11.974;2023-09-19T07:11:53;8.45;;;4.47;;
16957;SDS011;8595;52.542;11.974;2023-09-19T07:14:22;9.88;;;4.28;;
16957;SDS011;8595;52.542;11.974;2023-09-19T07:16:48;9.35;;;4.20;;
16957;SDS011;8595;52.542;11.974;2023-09-19T07:19:17;9.07;;;4.10;;
16957;SDS011;8595;52.542;11.974;2023-09-19T07:21:43;6.32;;;4.07;;
16957;SDS011;8595;52.542;11.974;2023-09-19T07:24:12;8.95;;;3.45;;
16957;SDS011;8595;52.542;11.974;2023-09-19T07:26:39;6.85;;;4.30;;
16957;SDS011;8595;52.542;11.974;2023-09-19T07:29:08;15.15;;;4.00;;
16957;SDS011;8595;52.542;11.974;2023-09-19T07:31:35;4.68;;;3.83;;
16957;SDS011;8595;52.542;11.974;2023-09-19T07:34:02;7.68;;;4.25;;
16957;SDS011;8595;52.542;11.974;2023-09-19T07:36:32;12.93;;;4.57;;
16957;SDS011;8595;52.542;11.974;2023-09-19T07:39:02;5.60;;;3.78;;
16957;SDS011;8595;52.542;11.974;2023-09-19T07:41:31;9.00;;;3.72;;
16957;SDS011;8595;52.542;11.974;2023-09-19T07:43:58;10.73;;;4.28;;
16957;SDS011;8595;52.542;11.974;2023-09-19T07:46:27;10.07;;;4.20;;
16957;SDS011;8595;52.542;11.974;2023-09-19T07:48:55;9.65;;;4.07;;
16957;SDS011;8595;52.542;11.974;2023-09-19T07:51:22;29.25;;;5.63;;
16957;SDS011;8595;52.542;11.974;2023-09-19T07:53:49;8.27;;;3.88;;
16957;SDS011;8595;52.542;11.974;2023-09-19T07:56:15;11.63;;;4.85;;
16957;SDS011;8595;52.542;11.974;2023-09-19T07:58:45;17.67;;;4.97;;
16957;SDS011;8595;52.542;11.974;2023-09-19T08:01:12;10.88;;;4.05;;
16957;SDS011;8595;52.542;11.974;2023-09-19T08:03:40;8.80;;;3.80;;
16957;SDS011;8595;52.542;11.974;2023-09-19T08:06:08;8.95;;;3.88;;
16957;SDS011;8595;52.542;11.974;2023-09-19T08:08:35;11.73;;;4.35;;
16957;SDS011;8595;52.542;11.974;2023-09-19T08:11:03;11.05;;;3.80;;
16957;SDS011;8595;52.542;11.974;2023-09-19T08:13:35;7.10;;;3.83;;
16957;SDS011;8595;52.542;11.974;2023-09-19T08:16:03;9.10;;;3.67;;
16957;SDS011;8595;52.542;11.974;2023-09-19T08:18:30;10.73;;;4.13;;
16957;SDS011;8595;52.542;11.974;2023-09-19T08:20:58;12.38;;;4.45;;
16957;SDS011;8595;52.542;11.974;2023-09-19T08:23:25;8.05;;;4.20;;
16957;SDS011;8595;52.542;11.974;2023-09-19T08:25:55;12.05;;;3.90;;
16957;SDS011;8595;52.542;11.974;2023-09-19T08:28:23;9.65;;;4.20;;
16957;SDS011;8595;52.542;11.974;2023-09-19T08:30:49;7.68;;;3.78;;
16957;SDS011;8595;52.542;11.974;2023-09-19T08:33:17;10.40;;;4.20;;
16957;SDS011;8595;52.542;11.974;2023-09-19T08:35:44;11.40;;;4.38;;
16957;SDS011;8595;52.542;11.974;2023-09-19T08:38:13;8.48;;;3.67;;
16957;SDS011;8595;52.542;11.974;2023-09-19T08:40:40;10.93;;;4.15;;
16957;SDS011;8595;52.542;11.974;2023-09-19T08:43:08;12.40;;;4.55;;
16957;SDS011;8595;52.542;11.974;2023-09-19T08:45:35;7.38;;;3.35;;
16957;SDS011;8595;52.542;11.974;2023-09-19T08:48:07;6.47;;;3.75;;
16957;SDS011;8595;52.542;11.974;2023-09-19T08:50:51;7.60;;;3.80;;
16957;SDS011;8595;52.542;11.974;2023-09-19T08:53:27;12.32;;;3.83;;
16957;SDS011;8595;52.542;11.974;2023-09-19T08:56:00;9.35;;;4.13;;
16957;SDS011;8595;52.542;11.974;2023-09-19T08:58:31;9.77;;;3.55;;
16957;SDS011;8595;52.542;11.974;2023-09-19T09:01:00;7.72;;;3.08;;
16957;SDS011;8595;52.542;11.974;2023-09-19T09:26:58;11.48;;;3.38;;
16957;SDS011;8595;52.542;11.974;2023-09-19T09:29:44;8.85;;;2.78;;
16957;SDS011;8595;52.542;11.974;2023-09-19T09:32:21;8.25;;;2.70;;
16957;SDS011;8595;52.542;11.974;2023-09-19T09:34:50;7.00;;;2.80;;
16957;SDS011;8595;52.542;11.974;2023-09-19T09:37:19;7.70;;;3.08;;
16957;SDS011;8595;52.542;11.974;2023-09-19T09:39:50;5.85;;;2.95;;
16957;SDS011;8595;52.542;11.974;2023-09-19T09:42:30;5.57;;;2.60;;
16957;SDS011;8595;52.542;11.974;2023-09-19T09:45:12;7.35;;;2.28;;
16957;SDS011;8595;52.542;11.974;2023-09-19T09:47:45;7.30;;;3.00;;
16957;SDS011;8595;52.542;11.974;2023-09-19T09:50:24;8.70;;;2.97;;
16957;SDS011;8595;52.542;11.974;2023-09-19T09:52:54;14.23;;;2.88;;
16957;SDS011;8595;52.542;11.974;2023-09-19T09:55:36;8.50;;;2.67;;
16957;SDS011;8595;52.542;11.974;2023-09-19T09:58:25;29.02;;;5.03;;
16957;SDS011;8595;52.542;11.974;2023-09-19T10:00:54;7.03;;;2.70;;
16957;SDS011;8595;52.542;11.974;2023-09-19T10:03:30;6.80;;;2.70;;
16957;SDS011;8595;52.542;11.974;2023-09-19T10:05:59;7.38;;;2.75;;
16957;SDS011;8595;52.542;11.974;2023-09-19T10:08:57;7.20;;;2.80;;
16957;SDS011;8595;52.542;11.974;2023-09-19T10:11:37;6.05;;;2.95;;
16957;SDS011;8595;52.542;11.974;2023-09-19T10:30:45;8.73;;;2.80;;
16957;SDS011;8595;52.542;11.974;2023-09-19T10:33:15;7.78;;;3.05;;
16957;SDS011;8595;52.542;11.974;2023-09-19T10:35:46;8.07;;;2.40;;
16957;SDS011;8595;52.542;11.974;2023-09-19T10:38:14;8.45;;;2.83;;
16957;SDS011;8595;52.542;11.974;2023-09-19T10:40:44;7.80;;;2.80;;
16957;SDS011;8595;52.542;11.974;2023-09-19T10:43:15;12.98;;;3.15;;
16957;SDS011;8595;52.542;11.974;2023-09-19T10:45:45;10.82;;;3.17;;
16957;SDS011;8595;52.542;11.974;2023-09-19T10:48:14;5.70;;;2.38;;
16957;SDS011;8595;52.542;11.974;2023-09-19T10:50:47;6.70;;;2.40;;
16957;SDS011;8595;52.542;11.974;2023-09-19T10:53:19;9.32;;;2.60;;
16957;SDS011;8595;52.542;11.974;2023-09-19T10:55:49;11.38;;;2.45;;
16957;SDS011;8595;52.542;11.974;2023-09-19T10:58:28;7.82;;;2.35;;
16957;SDS011;8595;52.542;11.974;2023-09-19T11:01:11;11.05;;;2.72;;
16957;SDS011;8595;52.542;11.974;2023-09-19T11:03:44;9.98;;;2.22;;
16957;SDS011;8595;52.542;11.974;2023-09-19T11:06:23;12.45;;;2.47;;
16957;SDS011;8595;52.542;11.974;2023-09-19T11:09:56;11.73;;;2.55;;
16957;SDS011;8595;52.542;11.974;2023-09-19T11:43:54;6.88;;;2.28;;
16957;SDS011;8595;52.542;11.974;2023-09-19T11:47:04;8.07;;;2.60;;
16957;SDS011;8595;52.542;11.974;2023-09-19T11:49:32;7.20;;;2.63;;
16957;SDS011;8595;52.542;11.974;2023-09-19T11:52:00;8.32;;;2.40;;
16957;SDS011;8595;52.542;11.974;2023-09-19T11:54:31;7.60;;;2.78;;
16957;SDS011;8595;52.542;11.974;2023-09-19T11:56:58;6.47;;;2.45;;
16957;SDS011;8595;52.542;11.974;2023-09-19T11:59:27;6.80;;;2.30;;
16957;SDS011;8595;52.542;11.974;2023-09-19T12:01:55;7.88;;;2.50;;
16957;SDS011;8595;52.542;11.974;2023-09-19T12:04:36;7.55;;;2.78;;
16957;SDS011;8595;52.542;11.974;2023-09-19T12:07:05;8.02;;;2.85;;
16957;SDS011;8595;52.542;11.974;2023-09-19T12:09:36;8.15;;;2.90;;
16957;SDS011;8595;52.542;11.974;2023-09-19T12:12:06;8.85;;;2.90;;
16957;SDS011;8595;52.542;11.974;2023-09-19T12:14:37;5.25;;;2.60;;
16957;SDS011;8595;52.542;11.974;2023-09-19T12:17:07;7.72;;;2.67;;
16957;SDS011;8595;52.542;11.974;2023-09-19T12:19:34;8.43;;;2.90;;
16957;SDS011;8595;52.542;11.974;2023-09-19T12:22:03;5.13;;;2.40;;
16957;SDS011;8595;52.542;11.974;2023-09-19T12:24:34;5.65;;;2.38;;
16957;SDS011;8595;52.542;11.974;2023-09-19T12:27:04;5.70;;;2.60;;
16957;SDS011;8595;52.542;11.974;2023-09-19T12:29:31;4.90;;;2.08;;
16957;SDS011;8595;52.542;11.974;2023-09-19T12:32:09;5.93;;;2.22;;
16957;SDS011;8595;52.542;11.974;2023-09-19T12:34:45;8.05;;;2.78;;
16957;SDS011;8595;52.542;11.974;2023-09-19T12:37:19;7.93;;;2.75;;
16957;SDS011;8595;52.542;11.974;2023-09-19T12:40:02;8.68;;;2.75;;
16957;SDS011;8595;52.542;11.974;2023-09-19T12:42:49;5.78;;;2.47;;
16957;SDS011;8595;52.542;11.974;2023-09-19T12:45:22;7.13;;;2.33;;
16957;SDS011;8595;52.542;11.974;2023-09-19T12:51:04;5.50;;;2.88;;
16957;SDS011;8595;52.542;11.974;2023-09-19T12:53:45;6.35;;;3.08;;
16957;SDS011;8595;52.542;11.974;2023-09-19T12:56:27;7.90;;;2.60;;
16957;SDS011;8595;52.542;11.974;2023-09-19T12:58:55;5.45;;;2.55;;
16957;SDS011;8595;52.542;11.974;2023-09-19T13:01:33;7.45;;;2.60;;
16957;SDS011;8595;52.542;11.974;2023-09-19T13:04:16;7.47;;;2.90;;
16957;SDS011;8595;52.542;11.974;2023-09-19T13:06:55;5.75;;;2.60;;
16957;SDS011;8595;52.542;11.974;2023-09-19T13:10:01;9.38;;;3.63;;
16957;SDS011;8595;52.542;11.974;2023-09-19T13:12:50;11.18;;;2.90;;
16957;SDS011;8595;52.542;11.974;2023-09-19T13:18:55;8.63;;;3.08;;
16957;SDS011;8595;52.542;11.974;2023-09-19T13:22:02;7.30;;;2.83;;
16957;SDS011;8595;52.542;11.974;2023-09-19T13:28:23;6.88;;;3.25;;
16957;SDS011;8595;52.542;11.974;2023-09-19T13:31:35;9.13;;;3.50;;
16957;SDS011;8595;52.542;11.974;2023-09-19T13:36:30;8.25;;;3.25;;
16957;SDS011;8595;52.542;11.974;2023-09-19T16:19:11;7.47;;;3.67;;
16957;SDS011;8595;52.542;11.974;2023-09-19T16:21:38;7.60;;;4.07;;
16957;SDS011;8595;52.542;11.974;2023-09-19T16:24:08;6.13;;;2.80;;
16957;SDS011;8595;52.542;11.974;2023-09-19T16:26:36;9.63;;;3.80;;
16957;SDS011;8595;52.542;11.974;2023-09-19T16:29:03;11.00;;;4.50;;
16957;SDS011;8595;52.542;11.974;2023-09-19T16:31:30;8.95;;;3.70;;
16957;SDS011;8595;52.542;11.974;2023-09-19T16:33:57;10.73;;;4.00;;
16957;SDS011;8595;52.542;11.974;2023-09-19T16:36:26;10.77;;;4.60;;
16957;SDS011;8595;52.542;11.974;2023-09-19T16:38:53;9.63;;;4.53;;
16957;SDS011;8595;52.542;11.974;2023-09-19T16:41:20;8.43;;;3.70;;
16957;SDS011;8595;52.542;11.974;2023-09-19T16:43:47;14.05;;;4.43;;
16957;SDS011;8595;52.542;11.974;2023-09-19T16:46:14;10.45;;;4.30;;
16957;SDS011;8595;52.542;11.974;2023-09-19T16:48:42;10.00;;;3.70;;
16957;SDS011;8595;52.542;11.974;2023-09-19T16:51:11;9.73;;;3.90;;
16957;SDS011;8595;52.542;11.974;2023-09-19T16:53:40;8.55;;;4.03;;
16957;SDS011;8595;52.542;11.974;2023-09-19T16:56:07;7.30;;;3.90;;
16957;SDS011;8595;52.542;11.974;2023-09-19T16:58:36;9.00;;;4.03;;
16957;SDS011;8595;52.542;11.974;2023-09-19T17:01:03;8.10;;;4.03;;
16957;SDS011;8595;52.542;11.974;2023-09-19T17:03:30;9.07;;;3.70;;
16957;SDS011;8595;52.542;11.974;2023-09-19T17:05:58;14.23;;;4.70;;
16957;SDS011;8595;52.542;11.974;2023-09-19T17:08:25;10.65;;;4.85;;
16957;SDS011;8595;52.542;11.974;2023-09-19T17:11:00;9.77;;;4.93;;
16957;SDS011;8595;52.542;11.974;2023-09-19T17:13:28;7.38;;;3.50;;
16957;SDS011;8595;52.542;11.974;2023-09-19T17:16:00;9.43;;;4.15;;
16957;SDS011;8595;52.542;11.974;2023-09-19T17:18:28;11.23;;;3.65;;
16957;SDS011;8595;52.542;11.974;2023-09-19T17:20:57;6.70;;;3.55;;
16957;SDS011;8595;52.542;11.974;2023-09-19T17:23:25;9.73;;;3.97;;
16957;SDS011;8595;52.542;11.974;2023-09-19T17:25:58;9.10;;;4.10;;
16957;SDS011;8595;52.542;11.974;2023-09-19T17:28:27;8.48;;;3.60;;
16957;SDS011;8595;52.542;11.974;2023-09-19T17:30:54;5.63;;;3.25;;
16957;SDS011;8595;52.542;11.974;2023-09-19T17:33:23;8.00;;;3.70;;
16957;SDS011;8595;52.542;11.974;2023-09-19T17:35:51;6.78;;;3.30;;
16957;SDS011;8595;52.542;11.974;2023-09-19T17:38:19;6.05;;;3.35;;
16957;SDS011;8595;52.542;11.974;2023-09-19T17:40:46;7.75;;;3.42;;
16957;SDS011;8595;52.542;11.974;2023-09-19T17:43:16;7.30;;;3.47;;
16957;SDS011;8595;52.542;11.974;2023-09-19T17:45:42;9.40;;;3.67;;
16957;SDS011;8595;52.542;11.974;2023-09-19T17:48:09;8.90;;;3.47;;
16957;SDS011;8595;52.542;11.974;2023-09-19T17:50:36;9.60;;;3.80;;
16957;SDS011;8595;52.542;11.974;2023-09-19T17:53:04;9.95;;;4.03;;
16957;SDS011;8595;52.542;11.974;2023-09-19T17:55:30;11.95;;;4.28;;
16957;SDS011;8595;52.542;11.974;2023-09-19T17:57:57;7.55;;;4.05;;
16957;SDS011;8595;52.542;11.974;2023-09-19T18:00:27;5.38;;;3.17;;
16957;SDS011;8595;52.542;11.974;2023-09-19T18:02:54;8.30;;;3.60;;
16957;SDS011;8595;52.542;11.974;2023-09-19T18:05:22;6.07;;;2.90;;
16957;SDS011;8595;52.542;11.974;2023-09-19T18:07:49;7.35;;;3.40;;
16957;SDS011;8595;52.542;11.974;2023-09-19T18:10:15;10.90;;;3.85;;
16957;SDS011;8595;52.542;11.974;2023-09-19T18:12:42;9.13;;;3.38;;
16957;SDS011;8595;52.542;11.974;2023-09-19T18:15:10;8.20;;;3.13;;
16957;SDS011;8595;52.542;11.974;2023-09-19T18:17:38;6.22;;;3.08;;
16957;SDS011;8595;52.542;11.974;2023-09-19T18:20:05;8.25;;;3.28;;
16957;SDS011;8595;52.542;11.974;2023-09-19T18:22:35;8.40;;;3.25;;
16957;SDS011;8595;52.542;11.974;2023-09-19T18:25:01;4.38;;;2.88;;
16957;SDS011;8595;52.542;11.974;2023-09-19T18:27:28;9.25;;;3.33;;
16957;SDS011;8595;52.542;11.974;2023-09-19T18:29:56;10.18;;;2.95;;
16957;SDS011;8595;52.542;11.974;2023-09-19T18:32:22;6.93;;;2.80;;
16957;SDS011;8595;52.542;11.974;2023-09-19T18:34:51;8.73;;;2.72;;
16957;SDS011;8595;52.542;11.974;2023-09-19T18:37:17;6.70;;;3.15;;
16957;SDS011;8595;52.542;11.974;2023-09-19T18:39:44;6.95;;;2.70;;
16957;SDS011;8595;52.542;11.974;2023-09-19T18:42:11;6.95;;;2.70;;
16957;SDS011;8595;52.542;11.974;2023-09-19T18:44:37;4.80;;;2.50;;
16957;SDS011;8595;52.542;11.974;2023-09-19T18:47:04;6.72;;;2.90;;
16957;SDS011;8595;52.542;11.974;2023-09-19T18:49:31;4.75;;;2.70;;
16957;SDS011;8595;52.542;11.974;2023-09-19T18:52:00;8.15;;;3.08;;
16957;SDS011;8595;52.542;11.974;2023-09-19T18:54:29;8.18;;;2.75;;
16957;SDS011;8595;52.542;11.974;2023-09-19T18:56:55;5.05;;;2.47;;
16957;SDS011;8595;52.542;11.974;2023-09-19T18:59:23;6.53;;;2.40;;
16957;SDS011;8595;52.542;11.974;2023-09-19T19:01:50;6.97;;;2.63;;
16957;SDS011;8595;52.542;11.974;2023-09-19T19:04:17;7.28;;;2.83;;
16957;SDS011;8595;52.542;11.974;2023-09-19T19:06:44;6.20;;;2.15;;
16957;SDS011;8595;52.542;11.974;2023-09-19T19:09:13;6.13;;;2.67;;
16957;SDS011;8595;52.542;11.974;2023-09-19T19:11:40;11.07;;;3.33;;
16957;SDS011;8595;52.542;11.974;2023-09-19T19:14:06;6.43;;;2.80;;
16957;SDS011;8595;52.542;11.974;2023-09-19T19:16:34;4.90;;;2.35;;
16957;SDS011;8595;52.542;11.974;2023-09-19T19:19:08;7.68;;;2.67;;
16957;SDS011;8595;52.542;11.974;2023-09-19T19:21:42;6.03;;;2.70;;
16957;SDS011;8595;52.542;11.974;2023-09-19T19:24:21;8.20;;;3.05;;
16957;SDS011;8595;52.542;11.974;2023-09-19T19:26:59;4.50;;;2.60;;
16957;SDS011;8595;52.542;11.974;2023-09-19T19:29:26;5.63;;;2.65;;
16957;SDS011;8595;52.542;11.974;2023-09-19T19:31:53;7.18;;;2.88;;
16957;SDS011;8595;52.542;11.974;2023-09-19T19:34:20;6.55;;;2.70;;
16957;SDS011;8595;52.542;11.974;2023-09-19T19:36:48;5.70;;;2.60;;
16957;SDS011;8595;52.542;11.974;2023-09-19T19:39:16;6.43;;;2.88;;
16957;SDS011;8595;52.542;11.974;2023-09-19T19:41:43;4.85;;;2.42;;
16957;SDS011;8595;52.542;11.974;2023-09-19T19:44:11;4.90;;;2.40;;
16957;SDS011;8595;52.542;11.974;2023-09-19T19:46:38;7.97;;;3.10;;
16957;SDS011;8595;52.542;11.974;2023-09-19T19:49:04;7.60;;;3.08;;
16957;SDS011;8595;52.542;11.974;2023-09-19T19:51:33;4.80;;;2.80;;
16957;SDS011;8595;52.542;11.974;2023-09-19T19:54:04;6.22;;;2.38;;
16957;SDS011;8595;52.542;11.974;2023-09-19T19:56:33;5.95;;;2.92;;
16957;SDS011;8595;52.542;11.974;2023-09-19T19:59:02;6.22;;;3.05;;
16957;SDS011;8595;52.542;11.974;2023-09-19T20:01:29;4.28;;;2.47;;
16957;SDS011;8595;52.542;11.974;2023-09-19T20:03:56;6.65;;;3.13;;
16957;SDS011;8595;52.542;11.974;2023-09-19T20:06:23;6.35;;;3.08;;
16957;SDS011;8595;52.542;11.974;2023-09-19T20:08:51;6.80;;;3.03;;
16957;SDS011;8595;52.542;11.974;2023-09-19T20:11:18;7.18;;;3.25;;
16957;SDS011;8595;52.542;11.974;2023-09-19T20:13:49;7.38;;;3.03;;
16957;SDS011;8595;52.542;11.974;2023-09-19T20:16:16;13.20;;;3.13;;
16957;SDS011;8595;52.542;11.974;2023-09-19T20:18:42;7.38;;;2.95;;
16957;SDS011;8595;52.542;11.974;2023-09-19T20:21:09;5.20;;;2.78;;
16957;SDS011;8595;52.542;11.974;2023-09-19T20:23:39;8.25;;;3.25;;
16957;SDS011;8595;52.542;11.974;2023-09-19T20:26:06;8.77;;;2.80;;
16957;SDS011;8595;52.542;11.974;2023-09-19T20:28:39;5.25;;;2.80;;
16957;SDS011;8595;52.542;11.974;2023-09-19T20:31:08;10.85;;;3.15;;
16957;SDS011;8595;52.542;11.974;2023-09-19T20:33:39;10.27;;;3.10;;
16957;SDS011;8595;52.542;11.974;2023-09-19T20:36:06;8.13;;;3.20;;
16957;SDS011;8595;52.542;11.974;2023-09-19T20:48:41;5.90;;;3.03;;
16957;SDS011;8595;52.542;11.974;2023-09-19T20:51:09;7.25;;;3.42;;
16957;SDS011;8595;52.542;11.974;2023-09-19T20:53:38;8.13;;;2.88;;
16957;SDS011;8595;52.542;11.974;2023-09-19T20:56:05;7.57;;;3.10;;
16957;SDS011;8595;52.542;11.974;2023-09-19T20:58:34;7.25;;;3.10;;
16957;SDS011;8595;52.542;11.974;2023-09-19T21:01:03;6.25;;;2.78;;